»·PEaware :: N65JF L42-L88

N65JF :: L42-L88

FLIGHT INFORMATION

Flight Status: Arrived
Operator: Privately registered:
United States
More flights under this callsign
Pilot: John F. (16397)
Aircraft: CESSNA 172 SKYHAWK
(C172)
More flights by this aircraft type
Origin: L42 Allen Parish
United States
Destination: L88 New Cuyama
United States
More flights between these airports :: More routes between these airports
Route: L52 FLW L88
File this flight plan on PilotEdge
Remarks: CAT 01
Altitude:
(Current/Filed)
7,500ft
Speed:
(Current/Filed)
100kts
Departed: 01-Jan-18 08:20 AM
Arrived: 01-Jan-18 09:12 AM
Distance/Time
Traveled:
1380nm/0:52
Distance/Time
To Go:
Arrived

Flight Plot

Page will automatically refresh every two minutes.

Flight plan parsing failed; only flown route is shown


Map Options




Map Legend


Flown Route
Filed Route
Departure Airport
Arrival Airport
Navaid (VOR, NDB)
Fix

Horizontal Profiles

Position Reports

Time Latitude Longitude Heading Altitude Ground
Speed
01-Jan-18 08:16 35.103643 -120.624842 341 17ft 3kts
01-Jan-18 08:17 35.103686 -120.625139 235 17ft 1kts
01-Jan-18 08:18 35.102282 -120.624699 121 17ft 10kts
01-Jan-18 08:19 35.100197 -120.620782 119 17ft 15kts
01-Jan-18 08:20 35.099496 -120.619562 308 17ft 0kts
01-Jan-18 08:21 35.099496 -120.619562 308 17ft 0kts
01-Jan-18 08:22 35.099496 -120.619562 308 17ft 0kts
01-Jan-18 08:23 35.099496 -120.619562 308 17ft 0kts
01-Jan-18 08:24 35.099496 -120.619562 308 17ft 0kts
01-Jan-18 08:25 35.099585 -120.619509 63 17ft 2kts
01-Jan-18 08:26 35.106884 -120.631108 309 369ft 76kts
01-Jan-18 08:27 35.096545 -120.642379 129 1055ft 85kts
01-Jan-18 08:28 35.079320 -120.618798 137 1039ft 87kts
01-Jan-18 08:29 35.082663 -120.600429 39 722ft 63kts
01-Jan-18 08:30 35.097811 -120.615216 301 138ft 80kts
01-Jan-18 08:31 35.103632 -120.625030 230 17ft 0kts
01-Jan-18 08:32 35.103632 -120.625032 234 17ft 0kts
01-Jan-18 08:33 35.102563 -120.625244 120 17ft 8kts
01-Jan-18 08:34 35.100911 -120.622128 121 17ft 13kts
01-Jan-18 08:35 35.099499 -120.619619 105 17ft 0kts
01-Jan-18 08:36 35.099499 -120.619619 105 17ft 0kts
01-Jan-18 08:37 35.099496 -120.619599 89 17ft 0kts
01-Jan-18 08:38 35.102995 -120.624735 309 77ft 77kts
01-Jan-18 08:39 35.106723 -120.641561 206 714ft 104kts
01-Jan-18 08:40 35.088579 -120.630333 118 1153ft 103kts
01-Jan-18 08:41 35.076787 -120.600665 101 1608ft 101kts
01-Jan-18 08:42 35.070559 -120.568473 109 2096ft 94kts
01-Jan-18 08:43 35.061222 -120.538728 97 2594ft 102kts
01-Jan-18 08:44 35.060214 -120.504768 95 3203ft 97kts
01-Jan-18 08:45 35.067099 -120.471188 59 3552ft 108kts
01-Jan-18 08:46 35.082602 -120.439334 58 3924ft 109kts
01-Jan-18 08:47 35.096970 -120.406669 68 4270ft 110kts
01-Jan-18 08:48 35.103042 -120.370172 81 4657ft 105kts
01-Jan-18 08:49 35.104151 -120.335755 89 5030ft 107kts
01-Jan-18 08:50 35.105415 -120.299546 86 5413ft 106kts
01-Jan-18 08:51 35.107482 -120.263973 86 5798ft 104kts
01-Jan-18 08:52 35.107597 -120.228481 92 6191ft 102kts
01-Jan-18 08:53 35.107194 -120.193250 93 6533ft 105kts
01-Jan-18 08:54 35.102061 -120.155759 103 6661ft 114kts
01-Jan-18 08:55 35.093683 -120.118899 106 6861ft 114kts
01-Jan-18 08:56 35.084757 -120.081597 107 7025ft 115kts
01-Jan-18 08:57 35.077669 -120.043518 94 7149ft 116kts
01-Jan-18 08:58 35.075755 -120.005066 88 7351ft 112kts
01-Jan-18 08:59 35.079916 -119.966495 79 7454ft 116kts
01-Jan-18 09:00 35.086720 -119.928791 81 7605ft 114kts
01-Jan-18 09:01 35.088123 -119.889415 83 7536ft 126kts
01-Jan-18 09:02 35.092641 -119.848746 79 6907ft 120kts
01-Jan-18 09:03 35.100304 -119.810309 80 5685ft 120kts
01-Jan-18 09:04 35.100691 -119.771026 101 4509ft 112kts
01-Jan-18 09:05 35.088178 -119.738041 127 4423ft 105kts
01-Jan-18 09:06 35.066404 -119.714807 144 4731ft 104kts
01-Jan-18 09:07 35.042789 -119.692510 141 4855ft 112kts
01-Jan-18 09:08 35.019092 -119.669841 142 4389ft 103kts
01-Jan-18 09:09 34.995228 -119.653976 166 4263ft 79kts
01-Jan-18 09:10 34.975486 -119.670877 247 4458ft 102kts
01-Jan-18 09:11 34.972962 -119.706102 268 4682ft 106kts
01-Jan-18 09:12 34.968456 -119.742372 248 4547ft 109kts
01-Jan-18 09:13 34.945531 -119.748426 133 4073ft 114kts
01-Jan-18 09:14 34.932980 -119.713858 105 3303ft 105kts
01-Jan-18 09:15 34.922769 -119.684499 117 3078ft 68kts
01-Jan-18 09:16 34.926356 -119.666025 20 2615ft 69kts
01-Jan-18 09:17 34.937271 -119.678990 297 2221ft 54kts
01-Jan-18 09:18 34.941956 -119.690391 291 2158ft 20kts
01-Jan-18 09:19 34.942562 -119.690978 200 2156ft 0kts
01-Jan-18 09:20 34.942562 -119.690978 200 2156ft 0kts
01-Jan-18 09:21 34.942562 -119.690978 200 2156ft 0kts
01-Jan-18 09:22 34.942562 -119.690978 200 2156ft 0kts
01-Jan-18 09:23 34.942562 -119.690978 200 2156ft 0kts
01-Jan-18 09:24 34.942562 -119.690978 200 2156ft 0kts
01-Jan-18 09:25 34.942562 -119.690978 200 2156ft 0kts
01-Jan-18 09:26 34.942562 -119.690978 200 2156ft 0kts
01-Jan-18 09:27 34.942562 -119.690978 200 2156ft 0kts
01-Jan-18 09:28 34.942562 -119.690978 200 2156ft 0kts
01-Jan-18 09:29 34.942562 -119.690978 200 2156ft 0kts
01-Jan-18 09:30 34.942517 -119.690996 196 2156ft 2kts
01-Jan-18 09:31 34.941496 -119.689321 119 2161ft 10kts
01-Jan-18 09:32 34.939872 -119.685386 113 2178ft 13kts

Navigation Log

Ident Type
Flight plan parsing failed, navigation log unavailable